createdAt,value
2022-09-28T00:00:50.527Z,81
2022-09-28T00:02:51.158Z,81
2022-09-28T00:04:50.604Z,81
2022-09-28T00:06:50.878Z,81
2022-09-28T00:08:50.918Z,81
2022-09-28T00:10:50.781Z,81
2022-09-28T00:12:50.535Z,81
2022-09-28T00:14:50.456Z,81
2022-09-28T00:16:51.064Z,81
2022-09-28T00:18:50.833Z,81
2022-09-28T00:20:50.840Z,81
2022-09-28T00:22:50.777Z,81
2022-09-28T00:24:50.476Z,81
2022-09-28T00:26:50.377Z,81
2022-09-28T00:28:50.237Z,81
2022-09-28T00:30:50.981Z,81
2022-09-28T00:32:50.767Z,81
2022-09-28T00:34:50.121Z,81
2022-09-28T00:36:50.237Z,81
2022-09-28T00:38:50.172Z,81
2022-09-28T00:40:51.349Z,81
2022-09-28T00:42:50.313Z,81
2022-09-28T00:44:50.161Z,81
2022-09-28T00:46:50.231Z,81
2022-09-28T00:48:50.917Z,81
2022-09-28T00:50:50.836Z,81
2022-09-28T00:52:50.820Z,81
2022-09-28T00:54:50.677Z,81
2022-09-28T00:56:50.733Z,81
2022-09-28T00:58:50.656Z,81
2022-09-28T01:00:50.798Z,81
2022-09-28T01:02:50.704Z,81
2022-09-28T01:04:50.110Z,81
2022-09-28T01:06:50.134Z,81
2022-09-28T01:08:51.029Z,81
2022-09-28T01:10:50.887Z,81
2022-09-28T01:12:50.838Z,81
2022-09-28T01:14:50.650Z,81
2022-09-28T01:16:51.228Z,81
2022-09-28T01:18:50.953Z,81
2022-09-28T01:20:50.792Z,81
2022-09-28T01:22:50.864Z,82
2022-09-28T01:24:50.726Z,82
2022-09-28T01:26:50.976Z,82
2022-09-28T01:28:50.923Z,82
2022-09-28T01:30:50.864Z,82
2022-09-28T01:32:50.768Z,82
2022-09-28T01:34:50.142Z,82
2022-09-28T01:36:50.105Z,82
2022-09-28T01:38:50.068Z,82
2022-09-28T01:40:51.254Z,82
2022-09-28T01:42:50.166Z,82
2022-09-28T01:44:50.976Z,82
2022-09-28T01:46:50.094Z,82
2022-09-28T01:48:50.954Z,82
2022-09-28T01:50:50.756Z,82
2022-09-28T01:52:50.582Z,82
2022-09-28T01:54:50.450Z,82
2022-09-28T01:56:50.552Z,82
2022-09-28T01:58:50.560Z,82
2022-09-28T02:00:50.530Z,82
2022-09-28T02:02:50.505Z,82
2022-09-28T02:04:50.683Z,82
2022-09-28T02:06:50.966Z,82
2022-09-28T02:08:50.173Z,82
2022-09-28T02:10:50.089Z,82
2022-09-28T02:12:50.933Z,82
2022-09-28T02:14:50.653Z,82
2022-09-28T02:16:50.967Z,82
2022-09-28T02:18:50.793Z,82
2022-09-28T02:20:50.643Z,82
2022-09-28T02:22:50.414Z,82
2022-09-28T02:24:50.056Z,82
2022-09-28T02:26:50.274Z,82
2022-09-28T02:28:50.237Z,82
2022-09-28T02:30:50.110Z,82
2022-09-28T02:32:50.810Z,82
2022-09-28T02:34:50.148Z,82
2022-09-28T02:36:50.296Z,82
2022-09-28T02:38:50.997Z,82
2022-09-28T02:40:51.427Z,82
2022-09-28T02:42:50.293Z,82
2022-09-28T02:44:50.108Z,82
2022-09-28T02:46:50.305Z,82
2022-09-28T02:49:30.305Z,82
2022-09-28T02:50:50.407Z,82
2022-09-28T02:52:50.258Z,82
2022-09-28T02:54:51.040Z,82
2022-09-28T02:56:50.183Z,82
2022-09-28T02:58:50.882Z,82
2022-09-28T03:00:50.991Z,82
2022-09-28T03:02:50.780Z,82
2022-09-28T03:04:50.292Z,82
2022-09-28T03:06:50.304Z,83
2022-09-28T03:08:50.113Z,83
2022-09-28T03:10:50.995Z,83
2022-09-28T03:12:50.815Z,83
2022-09-28T03:14:50.521Z,83
2022-09-28T03:16:50.633Z,83
2022-09-28T03:18:50.601Z,83
2022-09-28T03:20:50.465Z,83
2022-09-28T03:23:25.579Z,83
2022-09-28T03:24:50.705Z,83
2022-09-28T03:26:50.929Z,83
2022-09-28T03:28:50.818Z,83
2022-09-28T03:30:50.607Z,84
2022-09-28T03:32:50.538Z,84
2022-09-28T03:34:50.753Z,84
2022-09-28T03:36:50.907Z,84
2022-09-28T03:38:50.729Z,84
2022-09-28T03:40:50.928Z,84
2022-09-28T03:42:50.105Z,84
2022-09-28T03:44:51.026Z,84
2022-09-28T03:46:50.266Z,84
2022-09-28T03:48:50.140Z,84
2022-09-28T03:50:50.892Z,84
2022-09-28T03:52:50.781Z,84
2022-09-28T03:54:50.689Z,84
2022-09-28T03:56:50.912Z,84
2022-09-28T03:58:50.763Z,84
2022-09-28T04:00:51.069Z,84
2022-09-28T04:02:50.060Z,84
2022-09-28T04:04:50.582Z,84
2022-09-28T04:06:50.836Z,84
2022-09-28T04:08:50.693Z,84
2022-09-28T04:10:50.663Z,84
2022-09-28T04:12:50.642Z,84
2022-09-28T04:14:50.560Z,84
2022-09-28T04:16:50.265Z,84
2022-09-28T04:18:50.070Z,84
2022-09-28T04:20:50.864Z,84
2022-09-28T04:22:50.857Z,85
2022-09-28T04:24:50.025Z,85
2022-09-28T04:26:51.042Z,85
2022-09-28T04:28:50.764Z,85
2022-09-28T04:30:50.720Z,84
2022-09-28T04:32:50.670Z,84
2022-09-28T04:34:50.740Z,85
2022-09-28T04:36:51.016Z,84
2022-09-28T04:38:54.207Z,85
2022-09-28T04:40:51.340Z,85
2022-09-28T04:42:50.568Z,85
2022-09-28T04:44:50.413Z,85
2022-09-28T04:46:50.592Z,85
2022-09-28T04:48:50.461Z,85
2022-09-28T04:50:50.469Z,85
2022-09-28T04:52:50.209Z,85
2022-09-28T04:54:50.991Z,85
2022-09-28T04:56:50.103Z,85
2022-09-28T04:58:53.472Z,85
2022-09-28T05:00:50.732Z,85
2022-09-28T05:02:50.480Z,85
2022-09-28T05:04:50.860Z,85
2022-09-28T05:06:51.005Z,85
2022-09-28T05:08:50.046Z,85
2022-09-28T05:10:51.009Z,85
2022-09-28T05:12:50.843Z,85
2022-09-28T05:14:50.684Z,85
2022-09-28T05:16:51.311Z,85
2022-09-28T05:18:50.051Z,85
2022-09-28T05:20:50.885Z,85
2022-09-28T05:22:50.825Z,85
2022-09-28T05:24:50.840Z,84
2022-09-28T05:26:50.475Z,85
2022-09-28T05:28:50.433Z,85
2022-09-28T05:30:50.241Z,85
2022-09-28T05:32:50.946Z,85
2022-09-28T05:34:50.386Z,85
2022-09-28T05:36:50.473Z,85
2022-09-28T05:38:50.276Z,85
2022-09-28T05:40:50.852Z,85
2022-09-28T05:42:50.820Z,85
2022-09-28T05:44:50.980Z,85
2022-09-28T05:46:51.044Z,85
2022-09-28T05:48:50.862Z,85
2022-09-28T05:50:50.827Z,85
2022-09-28T05:52:50.878Z,85
2022-09-28T05:54:50.556Z,85
2022-09-28T05:56:50.771Z,85
2022-09-28T05:58:50.756Z,85
2022-09-28T06:00:50.935Z,85
2022-09-28T06:02:51.419Z,85
2022-09-28T06:04:50.825Z,85
2022-09-28T06:06:50.111Z,85
2022-09-28T06:08:50.995Z,85
2022-09-28T06:10:50.120Z,85
2022-09-28T06:12:50.966Z,85
2022-09-28T06:14:50.836Z,85
2022-09-28T06:16:51.368Z,85
2022-09-28T06:18:50.482Z,85
2022-09-28T06:20:50.376Z,85
2022-09-28T06:22:50.191Z,85
2022-09-28T06:24:51.037Z,85
2022-09-28T06:26:50.187Z,85
2022-09-28T06:28:50.388Z,85
2022-09-28T06:30:50.525Z,85
2022-09-28T06:32:50.563Z,85
2022-09-28T06:34:56.962Z,85
2022-09-28T06:36:50.516Z,85
2022-09-28T06:38:50.403Z,85
2022-09-28T06:40:50.932Z,85
2022-09-28T06:42:50.805Z,85
2022-09-28T06:44:50.687Z,85
2022-09-28T06:46:50.029Z,85
2022-09-28T06:48:50.906Z,84
2022-09-28T06:50:50.711Z,84
2022-09-28T06:52:50.548Z,84
2022-09-28T06:54:50.550Z,84
2022-09-28T06:56:50.553Z,84
2022-09-28T06:58:50.233Z,84
2022-09-28T07:00:50.389Z,84
2022-09-28T07:02:50.327Z,84
2022-09-28T07:04:50.944Z,84
2022-09-28T07:06:50.164Z,84
2022-09-28T07:09:32.571Z,84
2022-09-28T07:10:50.237Z,84
2022-09-28T07:12:50.161Z,84
2022-09-28T07:14:51.759Z,84
2022-09-28T07:17:15.103Z,84
2022-09-28T07:18:50.229Z,84
2022-09-28T07:20:55.245Z,84
2022-09-28T07:22:50.057Z,84
2022-09-28T07:24:50.450Z,84
2022-09-28T07:26:50.826Z,84
2022-09-28T07:28:50.636Z,84
2022-09-28T07:30:51.140Z,84
2022-09-28T07:32:50.100Z,84
2022-09-28T07:34:59.345Z,84
2022-09-28T07:36:50.549Z,83
2022-09-28T07:38:50.666Z,83
2022-09-28T07:40:51.064Z,83
2022-09-28T07:42:51.026Z,83
2022-09-28T07:44:50.863Z,83
2022-09-28T07:46:50.990Z,83
2022-09-28T07:48:51.021Z,83
2022-09-28T07:50:50.861Z,83
2022-09-28T07:52:50.690Z,83
2022-09-28T07:54:50.756Z,83
2022-09-28T07:56:50.241Z,83
2022-09-28T07:58:50.174Z,83
2022-09-28T08:00:51.625Z,82
2022-09-28T08:02:50.657Z,82
2022-09-28T08:04:50.286Z,82
2022-09-28T08:06:50.519Z,81
2022-09-28T08:08:50.356Z,81
2022-09-28T08:10:50.408Z,81
2022-09-28T08:12:50.414Z,81
2022-09-28T08:14:50.514Z,80
2022-09-28T08:16:53.928Z,80
2022-09-28T08:18:50.837Z,80
2022-09-28T08:20:52.372Z,79
2022-09-28T08:22:50.569Z,79
2022-09-28T08:24:50.648Z,79
2022-09-28T08:26:50.990Z,79
2022-09-28T08:28:50.913Z,79
2022-09-28T08:30:51.249Z,78
2022-09-28T08:32:50.134Z,79
2022-09-28T08:34:50.373Z,79
2022-09-28T08:36:50.506Z,79
2022-09-28T08:38:50.511Z,79
2022-09-28T08:40:51.018Z,79
2022-09-28T08:42:50.955Z,79
2022-09-28T08:44:50.926Z,77
2022-09-28T08:46:50.188Z,77
2022-09-28T08:49:30.290Z,77
2022-09-28T08:50:50.375Z,77
2022-09-28T08:52:50.237Z,78
2022-09-28T08:54:50.962Z,77
2022-09-28T08:56:50.363Z,77
2022-09-28T08:58:50.129Z,77
2022-09-28T09:00:50.529Z,77
2022-09-28T09:02:50.910Z,77
2022-09-28T09:04:50.380Z,77
2022-09-28T09:06:50.784Z,76
2022-09-28T09:08:50.630Z,76
2022-09-28T09:10:50.419Z,76
2022-09-28T09:12:50.763Z,76
2022-09-28T09:14:50.706Z,75
2022-09-28T09:16:51.539Z,74
2022-09-28T09:18:50.375Z,74
2022-09-28T09:20:50.106Z,73
2022-09-28T09:22:50.881Z,74
2022-09-28T09:24:50.878Z,74
2022-09-28T09:26:50.237Z,74
2022-09-28T09:28:50.100Z,74
2022-09-28T09:30:51.204Z,73
2022-09-28T09:32:50.265Z,74
2022-09-28T09:34:50.747Z,74
2022-09-28T09:36:50.112Z,74
2022-09-28T09:38:50.035Z,73
2022-09-28T09:40:51.643Z,73
2022-09-28T09:42:50.559Z,74
2022-09-28T09:44:50.449Z,74
2022-09-28T09:46:50.501Z,73
2022-09-28T09:48:50.357Z,73
2022-09-28T09:50:50.218Z,73
2022-09-28T09:52:50.159Z,73
2022-09-28T09:54:50.272Z,73
2022-09-28T09:56:50.425Z,73
2022-09-28T09:58:50.334Z,73
2022-09-28T10:00:50.154Z,73
2022-09-28T10:02:50.713Z,73
2022-09-28T10:04:50.178Z,73
2022-09-28T10:06:50.218Z,72
2022-09-28T10:08:51.068Z,71
2022-09-28T10:10:51.033Z,71
2022-09-28T10:12:50.915Z,71
2022-09-28T10:14:50.797Z,71
2022-09-28T10:16:51.379Z,71
2022-09-28T10:18:50.264Z,71
2022-09-28T10:20:50.153Z,71
2022-09-28T10:22:50.998Z,71
2022-09-28T10:24:50.828Z,71
2022-09-28T10:26:50.100Z,71
2022-09-28T10:28:50.797Z,71
2022-09-28T10:30:51.451Z,71
2022-09-28T10:32:50.458Z,71
2022-09-28T10:34:51.708Z,70
2022-09-28T10:36:50.053Z,70
2022-09-28T10:38:50.948Z,69
2022-09-28T10:40:51.542Z,69
2022-09-28T10:42:50.629Z,69
2022-09-28T10:44:50.521Z,69
2022-09-28T10:46:50.598Z,69
2022-09-28T10:48:50.451Z,69
2022-09-28T10:50:50.332Z,68
2022-09-28T10:52:50.383Z,68
2022-09-28T10:54:50.257Z,68
2022-09-28T10:56:50.460Z,67
2022-09-28T10:58:50.870Z,67
2022-09-28T11:00:50.814Z,67
2022-09-28T11:02:51.083Z,67
2022-09-28T11:04:50.408Z,67
2022-09-28T11:06:51.073Z,67
2022-09-28T11:08:50.981Z,68
2022-09-28T11:10:50.739Z,68
2022-09-28T11:12:50.589Z,68
2022-09-28T11:14:50.390Z,66
2022-09-28T11:16:50.947Z,65
2022-09-28T11:18:50.974Z,65
2022-09-28T11:20:50.786Z,65
2022-09-28T11:22:53.977Z,63
2022-09-28T11:24:50.995Z,63
2022-09-28T11:26:50.996Z,63
2022-09-28T11:28:50.792Z,63
2022-09-28T11:30:51.027Z,62
2022-09-28T11:32:50.933Z,62
2022-09-28T11:35:01.000Z,63
2022-09-28T11:36:50.185Z,62
2022-09-28T11:38:51.027Z,62
2022-09-28T11:40:51.292Z,63
2022-09-28T11:42:50.386Z,61
2022-09-28T11:44:50.376Z,61
2022-09-28T11:46:50.661Z,62
2022-09-28T11:48:50.444Z,62
2022-09-28T11:50:50.496Z,61
2022-09-28T11:52:50.389Z,61
2022-09-28T11:54:50.250Z,61
2022-09-28T11:56:50.143Z,62
2022-09-28T11:58:50.182Z,62
2022-09-28T12:00:50.980Z,61
2022-09-28T12:02:51.518Z,61
2022-09-28T12:04:51.041Z,61
2022-09-28T12:06:50.173Z,61
2022-09-28T12:08:51.060Z,61
2022-09-28T12:10:50.078Z,60
2022-09-28T12:12:50.088Z,60
2022-09-28T12:14:50.919Z,58
2022-09-28T12:17:09.016Z,59
2022-09-28T12:18:50.902Z,59
2022-09-28T12:20:50.889Z,58
2022-09-28T12:22:50.849Z,59
2022-09-28T12:24:50.863Z,59
2022-09-28T12:26:50.082Z,59
2022-09-28T12:28:50.990Z,59
2022-09-28T12:30:51.250Z,59
2022-09-28T12:32:50.115Z,59
2022-09-28T12:34:50.170Z,59
2022-09-28T13:08:50.397Z,59
2022-09-28T13:10:50.336Z,59
2022-09-28T13:12:50.293Z,59
2022-09-28T13:14:50.174Z,58
2022-09-28T13:16:50.303Z,59
2022-09-28T13:18:50.154Z,57
2022-09-28T13:20:51.015Z,57
2022-09-28T13:22:50.903Z,57
2022-09-28T13:24:50.956Z,57
2022-09-28T13:26:50.200Z,57
2022-09-28T13:28:50.121Z,57
2022-09-28T13:30:51.460Z,57
2022-09-28T13:32:50.410Z,57
2022-09-28T13:34:50.722Z,57
2022-09-28T13:36:50.054Z,57
2022-09-28T13:38:50.778Z,57
2022-09-28T13:40:51.087Z,56
2022-09-28T13:42:50.187Z,56
2022-09-28T13:44:51.033Z,56
2022-09-28T13:46:50.985Z,57
2022-09-28T13:48:50.926Z,56
2022-09-28T13:50:51.041Z,57
2022-09-28T13:52:50.835Z,57
2022-09-28T13:54:50.508Z,57
2022-09-28T13:56:50.773Z,57
2022-09-28T13:58:50.797Z,57
2022-09-28T14:00:50.947Z,57
2022-09-28T14:02:51.069Z,57
2022-09-28T14:04:50.518Z,57
2022-09-28T14:06:56.242Z,57
2022-09-28T14:08:50.374Z,57
2022-09-28T14:10:50.278Z,57
2022-09-28T14:12:50.062Z,57
2022-09-28T14:14:50.858Z,57
2022-09-28T14:16:51.075Z,57
2022-09-28T14:18:50.971Z,57
2022-09-28T14:20:50.820Z,57
2022-09-28T14:22:50.827Z,57
2022-09-28T14:24:50.672Z,57
2022-09-28T14:26:50.984Z,57
2022-09-28T14:28:50.830Z,57
2022-09-28T14:30:51.133Z,57
2022-09-28T14:32:50.068Z,57
2022-09-28T14:34:50.182Z,57
2022-09-28T14:36:50.083Z,57
2022-09-28T14:38:50.812Z,57
2022-09-28T14:40:51.042Z,57
2022-09-28T14:44:50.291Z,57
2022-09-28T14:46:50.377Z,57
2022-09-28T14:48:50.183Z,57
2022-09-28T14:50:50.094Z,57
2022-09-28T14:52:50.111Z,57
2022-09-28T14:54:50.812Z,58
2022-09-28T14:56:50.993Z,58
2022-09-28T14:58:50.877Z,58
2022-09-28T15:00:50.830Z,58
2022-09-28T15:02:50.802Z,58
2022-09-28T15:04:51.040Z,58
2022-09-28T15:06:50.431Z,58
2022-09-28T15:08:50.378Z,58
2022-09-28T15:10:50.419Z,58
2022-09-28T15:12:50.069Z,58
2022-09-28T15:14:50.066Z,57
2022-09-28T15:16:50.106Z,57
2022-09-28T15:18:50.081Z,57
2022-09-28T15:20:50.771Z,57
2022-09-28T15:22:50.646Z,57
2022-09-28T15:24:50.365Z,57
2022-09-28T15:26:50.578Z,57
2022-09-28T15:28:50.658Z,57
2022-09-28T15:30:50.826Z,57
2022-09-28T15:32:50.800Z,57
2022-09-28T15:34:50.213Z,57
2022-09-28T15:36:50.460Z,57
2022-09-28T15:38:50.062Z,57
2022-09-28T15:40:51.430Z,57
2022-09-28T15:42:50.541Z,58
2022-09-28T15:44:50.355Z,58
2022-09-28T15:46:50.451Z,58
2022-09-28T15:48:50.171Z,58
2022-09-28T15:50:50.979Z,58
2022-09-28T15:52:50.654Z,58
2022-09-28T15:54:50.633Z,58
2022-09-28T15:56:50.711Z,58
2022-09-28T15:58:50.438Z,58
2022-09-28T16:00:50.432Z,59
2022-09-28T16:02:50.681Z,59
2022-09-28T16:04:50.227Z,59
2022-09-28T16:06:50.446Z,59
2022-09-28T16:08:50.431Z,59
2022-09-28T16:10:50.361Z,60
2022-09-28T16:12:50.245Z,60
2022-09-28T16:14:50.950Z,60
2022-09-28T16:16:50.917Z,60
2022-09-28T16:18:50.840Z,60
2022-09-28T16:20:50.759Z,60
2022-09-28T16:22:50.696Z,60
2022-09-28T16:24:50.687Z,60
2022-09-28T16:26:50.841Z,60
2022-09-28T16:28:50.798Z,60
2022-09-28T16:30:50.958Z,61
2022-09-28T16:32:50.770Z,61
2022-09-28T16:34:50.345Z,61
2022-09-28T16:36:50.393Z,61
2022-09-28T16:38:50.172Z,61
2022-09-28T16:40:50.866Z,61
2022-09-28T16:42:50.770Z,61
2022-09-28T16:44:50.652Z,62
2022-09-28T16:46:51.268Z,62
2022-09-28T16:48:50.110Z,62
2022-09-28T16:50:50.128Z,62
2022-09-28T16:52:50.046Z,62
2022-09-28T16:54:50.950Z,62
2022-09-28T16:56:50.204Z,62
2022-09-28T16:58:50.150Z,62
2022-09-28T17:00:50.102Z,62
2022-09-28T17:02:51.216Z,62
2022-09-28T17:04:50.361Z,63
2022-09-28T17:06:50.267Z,63
2022-09-28T17:08:50.122Z,63
2022-09-28T17:11:24.800Z,63
2022-09-28T17:12:51.005Z,63
2022-09-28T17:14:50.794Z,64
2022-09-28T17:17:17.435Z,64
2022-09-28T17:18:50.512Z,64
2022-09-28T17:20:50.299Z,64
2022-09-28T17:22:50.208Z,64
2022-09-28T17:24:50.143Z,64
2022-09-28T17:26:50.406Z,64
2022-09-28T17:28:50.304Z,64
2022-09-28T17:30:50.525Z,64
2022-09-28T17:32:50.512Z,64
2022-09-28T17:35:25.707Z,64
2022-09-28T17:36:50.863Z,64
2022-09-28T17:38:50.755Z,64
2022-09-28T17:40:50.955Z,64
2022-09-28T17:42:50.783Z,64
2022-09-28T17:44:50.603Z,64
2022-09-28T17:46:50.807Z,64
2022-09-28T17:48:50.774Z,64
2022-09-28T17:50:50.790Z,64
2022-09-28T17:52:50.944Z,64
2022-09-28T17:54:50.909Z,65
2022-09-28T17:56:51.005Z,65
2022-09-28T17:58:50.821Z,65
2022-09-28T18:00:50.599Z,65
2022-09-28T18:02:51.110Z,65
2022-09-28T18:04:54.339Z,65
2022-09-28T18:06:50.545Z,65
2022-09-28T18:08:50.440Z,66
2022-09-28T18:10:50.225Z,66
2022-09-28T18:12:51.020Z,66
2022-09-28T18:14:50.873Z,66
2022-09-28T18:16:50.139Z,66
2022-09-28T18:18:50.293Z,67
2022-09-28T18:20:50.886Z,66
2022-09-28T18:22:50.803Z,66
2022-09-28T18:24:51.153Z,66
2022-09-28T18:26:50.391Z,66
2022-09-28T18:28:50.254Z,67
2022-09-28T18:30:51.266Z,67
2022-09-28T18:32:50.159Z,67
2022-09-28T18:34:50.401Z,67
2022-09-28T18:36:50.969Z,68
2022-09-28T18:38:50.789Z,68
2022-09-28T18:40:51.269Z,68
2022-09-28T18:42:50.147Z,67
2022-09-28T18:44:50.923Z,67
2022-09-28T18:46:50.527Z,68
2022-09-28T18:48:50.326Z,68
2022-09-28T18:50:50.232Z,68
2022-09-28T18:52:50.124Z,68
2022-09-28T18:54:50.088Z,69
2022-09-28T18:56:50.202Z,69
2022-09-28T18:58:50.112Z,69
2022-09-28T19:00:50.929Z,70
2022-09-28T19:02:51.095Z,70
2022-09-28T19:04:50.377Z,70
2022-09-28T19:06:50.539Z,70
2022-09-28T19:08:50.443Z,70
2022-09-28T19:10:50.375Z,70
2022-09-28T19:12:50.391Z,70
2022-09-28T19:14:50.080Z,70
2022-09-28T19:16:50.160Z,71
2022-09-28T19:18:50.189Z,70
2022-09-28T19:20:50.247Z,71
2022-09-28T19:22:50.070Z,71
2022-09-28T19:24:50.926Z,71
2022-09-28T19:26:50.212Z,71
2022-09-28T19:28:50.132Z,71
2022-09-28T19:30:51.586Z,71
2022-09-28T19:32:50.540Z,71
2022-09-28T19:34:50.886Z,71
2022-09-28T19:36:50.044Z,71
2022-09-28T19:38:50.990Z,71
2022-09-28T19:40:51.356Z,71
2022-09-28T19:42:50.199Z,72
2022-09-28T19:44:50.099Z,72
2022-09-28T19:46:50.100Z,72
2022-09-28T19:48:50.084Z,72
2022-09-28T19:50:50.956Z,72
2022-09-28T19:52:50.816Z,73
2022-09-28T19:54:50.592Z,73
2022-09-28T19:56:50.801Z,73
2022-09-28T19:58:50.789Z,73
2022-09-28T20:00:50.784Z,73
2022-09-28T20:02:51.159Z,73
2022-09-28T20:04:50.803Z,73
2022-09-28T20:06:50.142Z,73
2022-09-28T20:08:51.001Z,73
2022-09-28T20:10:51.078Z,73
2022-09-28T20:12:50.856Z,73
2022-09-28T20:14:50.808Z,73
2022-09-28T20:16:50.002Z,73
2022-09-28T20:18:50.885Z,73
2022-09-28T20:20:50.762Z,73
2022-09-28T20:22:50.608Z,74
2022-09-28T20:24:50.698Z,74
2022-09-28T20:26:50.868Z,74
2022-09-28T20:28:50.683Z,74
2022-09-28T20:30:50.810Z,74
2022-09-28T20:32:50.996Z,74
2022-09-28T20:34:50.403Z,74
2022-09-28T20:36:50.774Z,74
2022-09-28T20:38:50.538Z,74
2022-09-28T20:40:50.648Z,74
2022-09-28T20:42:50.499Z,74
2022-09-28T20:44:50.468Z,75
2022-09-28T20:46:50.836Z,75
2022-09-28T20:48:50.784Z,75
2022-09-28T20:50:50.606Z,75
2022-09-28T20:52:50.325Z,75
2022-09-28T20:54:50.200Z,75
2022-09-28T20:56:50.253Z,75
2022-09-28T20:58:50.131Z,75
2022-09-28T21:00:50.936Z,75
2022-09-28T21:02:51.272Z,75
2022-09-28T21:04:50.412Z,75
2022-09-28T21:06:50.662Z,75
2022-09-28T21:08:50.528Z,75
2022-09-28T21:10:50.462Z,77
2022-09-28T21:12:50.383Z,78
2022-09-28T21:14:50.496Z,79
2022-09-28T21:16:50.547Z,79
2022-09-28T21:18:50.310Z,80
2022-09-28T21:20:50.385Z,80
2022-09-28T21:22:50.319Z,79
2022-09-28T21:24:50.108Z,79
2022-09-28T21:26:50.085Z,79
2022-09-28T21:28:50.939Z,79
2022-09-28T21:30:51.110Z,79
2022-09-28T21:32:50.286Z,79
2022-09-28T21:34:50.255Z,78
2022-09-28T21:36:50.367Z,78
2022-09-28T21:38:50.321Z,78
2022-09-28T21:40:50.724Z,78
2022-09-28T21:42:50.744Z,78
2022-09-28T21:44:50.543Z,78
2022-09-28T21:46:50.740Z,78
2022-09-28T21:48:50.559Z,78
2022-09-28T21:50:50.524Z,78
2022-09-28T21:52:50.403Z,78
2022-09-28T21:54:50.125Z,78
2022-09-28T21:56:50.080Z,78
2022-09-28T21:58:51.015Z,78
2022-09-28T22:00:50.880Z,78
2022-09-28T22:02:51.243Z,78
2022-09-28T22:04:50.817Z,78
2022-09-28T22:06:50.161Z,78
2022-09-28T22:08:50.973Z,79
2022-09-28T22:10:50.857Z,79
2022-09-28T22:12:50.601Z,79
2022-09-28T22:14:50.347Z,79
2022-09-28T22:16:50.758Z,79
2022-09-28T22:18:50.794Z,79
2022-09-28T22:20:50.791Z,79
2022-09-28T22:22:50.639Z,79
2022-09-28T22:24:50.255Z,79
2022-09-28T22:26:50.110Z,79
2022-09-28T22:28:50.887Z,80
2022-09-28T22:30:51.141Z,80
2022-09-28T22:32:50.038Z,80
2022-09-28T22:34:50.353Z,80
2022-09-28T22:36:50.422Z,80
2022-09-28T22:38:50.393Z,80
2022-09-28T22:40:50.660Z,80
2022-09-28T22:42:50.886Z,80
2022-09-28T22:44:50.813Z,79
2022-09-28T22:46:51.978Z,79
2022-09-28T22:48:50.967Z,79
2022-09-28T22:50:50.846Z,79
2022-09-28T22:52:50.931Z,79
2022-09-28T22:54:50.699Z,79
2022-09-28T22:56:50.100Z,79
2022-09-28T22:58:50.932Z,79
2022-09-28T23:00:50.862Z,79
2022-09-28T23:02:50.972Z,79
2022-09-28T23:04:50.248Z,79
2022-09-28T23:06:50.247Z,79
2022-09-28T23:08:50.048Z,79
2022-09-28T23:10:51.035Z,79
2022-09-28T23:12:50.910Z,79
2022-09-28T23:14:50.861Z,79
2022-09-28T23:16:50.026Z,79
2022-09-28T23:18:50.892Z,79
2022-09-28T23:20:50.800Z,79
2022-09-28T23:22:50.652Z,79
2022-09-28T23:24:50.396Z,79
2022-09-28T23:26:50.604Z,79
2022-09-28T23:28:50.478Z,79
2022-09-28T23:30:50.732Z,79
2022-09-28T23:32:50.723Z,79
2022-09-28T23:34:51.024Z,79
2022-09-28T23:36:50.212Z,79
2022-09-28T23:38:50.154Z,79
2022-09-28T23:40:51.261Z,80
2022-09-28T23:42:50.949Z,80
2022-09-28T23:44:50.060Z,80
2022-09-28T23:46:50.625Z,80
2022-09-28T23:48:50.438Z,80
2022-09-28T23:50:50.206Z,80
2022-09-28T23:52:51.034Z,80
2022-09-28T23:54:50.685Z,80
2022-09-28T23:56:50.825Z,81
2022-09-28T23:58:50.892Z,81
